createdAt,value
2018-07-21T00:02:01.113Z,4.17
2018-07-21T00:04:29.557Z,2.50
2018-07-21T00:06:57.981Z,3.33
2018-07-21T00:09:26.421Z,1.87
2018-07-21T00:11:54.868Z,2.50
2018-07-21T00:14:23.324Z,4.33
2018-07-21T00:16:51.768Z,1.98
2018-07-21T00:19:20.242Z,2.08
2018-07-21T00:21:48.696Z,2.55
2018-07-21T00:24:17.148Z,2.17
2018-07-21T00:26:48.946Z,2.25
2018-07-21T00:29:18.783Z,2.30
2018-07-21T00:31:47.226Z,2.62
2018-07-21T00:34:15.708Z,2.83
2018-07-21T00:36:43.824Z,2.05
2018-07-21T00:39:15.444Z,2.17
2018-07-21T00:41:44.219Z,2.58
2018-07-21T00:44:12.702Z,1.82
2018-07-21T00:46:41.125Z,1.85
2018-07-21T00:49:09.596Z,2.98
2018-07-21T00:51:38.169Z,1.92
2018-07-21T00:54:06.738Z,3.20
2018-07-21T00:56:35.199Z,3.87
2018-07-21T00:59:03.741Z,2.87
2018-07-21T01:01:32.156Z,2.27
2018-07-21T01:04:00.650Z,2.27
2018-07-21T01:06:29.253Z,3.20
2018-07-21T01:08:57.852Z,2.30
2018-07-21T01:11:26.292Z,2.35
2018-07-21T01:13:54.767Z,2.37
2018-07-21T01:16:23.185Z,3.70
2018-07-21T01:18:51.629Z,2.35
2018-07-21T01:21:20.173Z,4.37
2018-07-21T01:23:48.685Z,3.27
2018-07-21T01:26:17.181Z,2.33
2018-07-21T01:28:45.627Z,2.40
2018-07-21T01:31:14.281Z,5.55
2018-07-21T01:33:42.733Z,3.42
2018-07-21T01:36:11.212Z,3.62
2018-07-21T01:38:39.861Z,4.60
2018-07-21T01:41:08.305Z,4.28
2018-07-21T01:43:36.736Z,3.52
2018-07-21T01:46:05.357Z,4.67
2018-07-21T01:48:33.780Z,2.80
2018-07-21T01:51:02.229Z,2.60
2018-07-21T01:53:30.700Z,8.00
2018-07-21T01:55:59.250Z,3.77
2018-07-21T01:58:27.682Z,4.08
2018-07-21T02:00:56.158Z,4.30
2018-07-21T02:03:24.591Z,3.70
2018-07-21T02:05:53.104Z,3.33
2018-07-21T02:08:21.544Z,3.37
2018-07-21T02:10:49.977Z,2.72
2018-07-21T02:13:18.420Z,4.65
2018-07-21T02:15:46.865Z,2.75
2018-07-21T02:18:15.304Z,3.42
2018-07-21T02:20:43.748Z,3.05
2018-07-21T02:23:12.173Z,5.53
2018-07-21T02:25:40.649Z,2.83
2018-07-21T02:28:09.069Z,7.12
2018-07-21T02:30:37.626Z,2.83
2018-07-21T02:33:06.116Z,6.40
2018-07-21T02:35:34.594Z,3.33
2018-07-21T02:38:03.076Z,4.00
2018-07-21T02:40:31.545Z,4.50
2018-07-21T02:43:00.080Z,4.40
2018-07-21T02:45:28.561Z,6.28
2018-07-21T02:47:57.009Z,6.15
2018-07-21T02:50:25.452Z,4.35
2018-07-21T02:52:53.865Z,2.98
2018-07-21T02:55:22.321Z,3.15
2018-07-21T02:57:50.753Z,2.42
2018-07-21T03:00:19.184Z,3.10
2018-07-21T03:02:47.609Z,3.35
2018-07-21T03:05:16.101Z,4.00
2018-07-21T03:07:44.498Z,5.05
2018-07-21T03:10:12.904Z,2.65
2018-07-21T03:12:41.328Z,3.10
2018-07-21T03:15:10.013Z,2.35
2018-07-21T03:17:38.489Z,4.65
2018-07-21T03:20:06.909Z,2.87
2018-07-21T03:22:35.360Z,2.80
2018-07-21T03:25:03.813Z,2.62
2018-07-21T03:27:32.273Z,2.35
2018-07-21T03:30:00.732Z,2.72
2018-07-21T03:32:29.181Z,1.87
2018-07-21T03:34:57.616Z,2.83
2018-07-21T03:37:26.089Z,2.92
2018-07-21T03:39:54.504Z,1.80
2018-07-21T03:42:22.992Z,2.58
2018-07-21T03:44:51.436Z,4.28
2018-07-21T03:47:19.964Z,2.72
2018-07-21T03:49:48.381Z,3.50
2018-07-21T03:52:16.846Z,6.42
2018-07-21T03:54:45.284Z,5.03
2018-07-21T03:57:13.792Z,4.75
2018-07-21T03:59:42.208Z,5.20
2018-07-21T04:02:10.678Z,4.55
2018-07-21T04:04:39.245Z,4.67
2018-07-21T04:07:07.730Z,4.97
2018-07-21T04:09:36.152Z,5.05
2018-07-21T04:12:04.627Z,4.53
2018-07-21T04:14:33.066Z,4.78
2018-07-21T04:17:01.548Z,3.87
2018-07-21T04:19:29.973Z,7.67
2018-07-21T04:21:58.478Z,4.67
2018-07-21T04:24:26.893Z,3.95
2018-07-21T04:26:55.373Z,3.30
2018-07-21T04:29:23.768Z,3.30
2018-07-21T04:31:52.204Z,3.37
2018-07-21T04:34:20.744Z,4.03
2018-07-21T04:36:49.296Z,2.95
2018-07-21T04:39:17.749Z,5.33
2018-07-21T04:41:46.233Z,3.50
2018-07-21T04:44:14.649Z,3.70
2018-07-21T04:46:43.092Z,2.92
2018-07-21T04:49:11.505Z,3.05
2018-07-21T04:51:39.985Z,3.85
2018-07-21T04:54:08.401Z,3.87
2018-07-21T04:56:36.839Z,3.92
2018-07-21T04:59:05.286Z,5.25
2018-07-21T05:01:33.735Z,3.00
2018-07-21T05:04:02.193Z,3.50
2018-07-21T05:06:30.816Z,3.60
2018-07-21T05:08:59.300Z,4.67
2018-07-21T05:11:27.760Z,4.25
2018-07-21T05:13:56.215Z,3.30
2018-07-21T05:16:24.637Z,5.28
2018-07-21T05:18:53.084Z,3.33
2018-07-21T05:21:21.521Z,3.10
2018-07-21T05:23:49.963Z,3.22
2018-07-21T05:26:18.399Z,3.42
2018-07-21T05:28:46.845Z,3.42
2018-07-21T05:31:15.307Z,5.30
2018-07-21T05:33:43.768Z,4.25
2018-07-21T05:36:12.181Z,4.53
2018-07-21T05:38:40.798Z,3.15
2018-07-21T05:41:09.748Z,3.58
2018-07-21T05:43:38.241Z,4.33
2018-07-21T05:46:06.786Z,3.60
2018-07-21T05:48:35.309Z,3.60
2018-07-21T05:51:03.748Z,5.62
2018-07-21T05:53:32.196Z,7.45
2018-07-21T05:56:00.742Z,7.15
2018-07-21T05:58:29.228Z,5.40
2018-07-21T06:00:57.712Z,5.75
2018-07-21T06:03:26.391Z,6.33
2018-07-21T06:05:54.875Z,4.87
2018-07-21T06:08:23.328Z,4.28
2018-07-21T06:10:51.908Z,3.27
2018-07-21T06:13:20.668Z,3.75
2018-07-21T06:15:49.172Z,4.08
2018-07-21T06:18:17.629Z,3.37
2018-07-21T06:20:46.070Z,4.47
2018-07-21T06:23:14.516Z,3.50
2018-07-21T06:25:42.933Z,3.80
2018-07-21T06:28:11.443Z,4.10
2018-07-21T06:30:39.871Z,3.77
2018-07-21T06:33:08.341Z,3.55
2018-07-21T06:35:36.778Z,3.75
2018-07-21T06:38:05.358Z,3.50
2018-07-21T06:40:33.819Z,3.20
2018-07-21T06:43:02.505Z,6.08
2018-07-21T06:45:30.937Z,4.05
2018-07-21T06:47:59.482Z,2.95
2018-07-21T06:50:27.896Z,4.47
2018-07-21T06:52:56.429Z,4.12
2018-07-21T06:55:24.915Z,3.75
2018-07-21T06:57:53.376Z,3.55
2018-07-21T07:00:22.146Z,6.60
2018-07-21T07:02:50.589Z,7.65
2018-07-21T07:05:19.076Z,3.47
2018-07-21T07:07:47.504Z,3.58
2018-07-21T07:10:15.981Z,2.90
2018-07-21T07:12:44.449Z,2.85
2018-07-21T07:15:12.924Z,3.10
2018-07-21T07:17:41.458Z,2.62
2018-07-21T07:20:09.908Z,4.87
2018-07-21T07:22:38.348Z,2.70
2018-07-21T07:25:06.841Z,2.50
2018-07-21T07:27:35.298Z,2.50
2018-07-21T07:30:03.803Z,3.12
2018-07-21T07:32:32.341Z,2.33
2018-07-21T07:35:00.797Z,2.50
2018-07-21T07:37:29.273Z,2.75
2018-07-21T07:39:57.729Z,2.27
2018-07-21T07:42:26.169Z,2.37
2018-07-21T07:44:54.651Z,2.30
2018-07-21T07:47:23.278Z,2.12
2018-07-21T07:49:51.866Z,2.10
2018-07-21T07:52:20.296Z,1.90
2018-07-21T07:54:48.831Z,2.22
2018-07-21T07:57:17.264Z,4.92
2018-07-21T07:59:45.709Z,1.70
2018-07-21T08:02:14.281Z,5.33
2018-07-21T08:04:42.756Z,2.15
2018-07-21T08:07:11.384Z,2.00
2018-07-21T08:09:39.829Z,1.95
2018-07-21T08:12:08.325Z,2.98
2018-07-21T08:14:36.816Z,2.55
2018-07-21T08:17:05.268Z,1.75
2018-07-21T08:19:33.845Z,2.67
2018-07-21T08:22:02.275Z,2.12
2018-07-21T08:24:30.763Z,2.22
2018-07-21T08:26:59.223Z,2.12
2018-07-21T08:29:27.653Z,1.80
2018-07-21T08:31:56.083Z,1.45
2018-07-21T08:34:24.508Z,1.57
2018-07-21T08:36:52.945Z,3.37
2018-07-21T08:39:21.589Z,1.22
2018-07-21T08:41:50.006Z,2.72
2018-07-21T08:44:18.423Z,1.52
2018-07-21T08:46:46.865Z,1.62
2018-07-21T08:49:15.292Z,1.42
2018-07-21T08:51:43.777Z,1.50
2018-07-21T08:54:12.512Z,3.17
2018-07-21T08:56:40.986Z,1.50
2018-07-21T08:59:09.459Z,1.90
2018-07-21T09:01:37.934Z,1.50
2018-07-21T09:04:06.722Z,0.95
2018-07-21T09:06:35.160Z,1.00
2018-07-21T09:09:03.886Z,1.35
2018-07-21T09:11:32.557Z,1.67
2018-07-21T09:14:01.019Z,1.27
2018-07-21T09:16:32.729Z,1.77
2018-07-21T09:19:02.282Z,1.10
2018-07-21T09:21:30.856Z,1.75
2018-07-21T09:24:03.090Z,2.65
2018-07-21T09:26:31.772Z,1.90
2018-07-21T09:29:00.333Z,1.92
2018-07-21T09:31:28.849Z,1.70
2018-07-21T09:33:57.332Z,2.50
2018-07-21T09:36:25.865Z,1.70
2018-07-21T09:38:54.393Z,1.42
2018-07-21T09:41:22.941Z,1.57
2018-07-21T09:43:51.539Z,1.87
2018-07-21T09:46:20.086Z,2.27
2018-07-21T09:48:48.588Z,2.20
2018-07-21T09:51:17.060Z,1.47
2018-07-21T09:53:45.473Z,2.17
2018-07-21T09:56:14.097Z,1.90
2018-07-21T09:58:42.520Z,2.25
2018-07-21T10:01:11.021Z,1.87
2018-07-21T10:03:39.432Z,3.42
2018-07-21T10:06:07.948Z,2.77
2018-07-21T10:08:36.392Z,1.60
2018-07-21T10:11:04.898Z,3.35
2018-07-21T10:13:33.493Z,1.52
2018-07-21T10:16:02.008Z,1.95
2018-07-21T10:18:30.447Z,2.05
2018-07-21T10:20:58.877Z,1.77
2018-07-21T10:23:27.286Z,1.30
2018-07-21T10:26:00.956Z,2.30
2018-07-21T10:28:34.581Z,2.00
2018-07-21T10:31:03.109Z,3.47
2018-07-21T10:33:31.565Z,1.87
2018-07-21T10:36:00.013Z,1.82
2018-07-21T10:38:28.496Z,2.10
2018-07-21T10:40:56.616Z,1.75
2018-07-21T10:43:25.090Z,1.20
2018-07-21T10:45:53.536Z,1.65
2018-07-21T10:48:22.009Z,1.35
2018-07-21T10:50:50.468Z,1.77
2018-07-21T10:53:18.902Z,1.32
2018-07-21T10:55:47.395Z,1.30
2018-07-21T10:58:15.936Z,1.77
2018-07-21T11:00:44.379Z,3.22
2018-07-21T11:03:12.832Z,1.77
2018-07-21T11:05:41.278Z,1.27
2018-07-21T11:08:09.797Z,2.15
2018-07-21T11:10:38.204Z,3.42
2018-07-21T11:13:06.644Z,1.32
2018-07-21T11:15:35.149Z,2.35
2018-07-21T11:18:03.577Z,1.85
2018-07-21T11:20:32.055Z,1.98
2018-07-21T11:23:00.498Z,3.55
2018-07-21T11:25:28.916Z,1.20
2018-07-21T11:27:57.425Z,1.77
2018-07-21T11:30:25.837Z,1.67
2018-07-21T11:32:54.284Z,1.67
2018-07-21T11:35:22.747Z,3.05
2018-07-21T11:37:51.200Z,2.58
2018-07-21T11:40:19.699Z,1.62
2018-07-21T11:42:48.258Z,1.70
2018-07-21T11:45:16.844Z,1.60
2018-07-21T11:47:45.383Z,3.12
2018-07-21T11:50:13.836Z,3.00
2018-07-21T11:52:42.340Z,1.45
2018-07-21T11:55:10.757Z,2.10
2018-07-21T11:57:39.232Z,2.58
2018-07-21T12:00:07.714Z,1.30
2018-07-21T12:02:36.165Z,1.92
2018-07-21T12:05:04.616Z,2.00
2018-07-21T12:07:33.093Z,1.60
2018-07-21T12:10:01.513Z,1.70
2018-07-21T12:12:29.952Z,1.65
2018-07-21T12:14:58.372Z,1.60
2018-07-21T12:17:26.935Z,2.70
2018-07-21T12:19:55.412Z,2.52
2018-07-21T12:22:23.865Z,1.57
2018-07-21T12:24:52.308Z,2.65
2018-07-21T12:27:20.747Z,3.33
2018-07-21T12:29:49.228Z,1.70
2018-07-21T12:32:17.669Z,1.72
2018-07-21T12:34:46.150Z,1.80
2018-07-21T12:37:14.611Z,2.00
2018-07-21T12:39:43.105Z,2.45
2018-07-21T12:42:11.549Z,1.72
2018-07-21T12:44:40.025Z,1.98
2018-07-21T12:47:08.473Z,2.22
2018-07-21T12:49:37.021Z,1.98
2018-07-21T12:52:05.498Z,1.87
2018-07-21T12:54:33.948Z,1.92
2018-07-21T12:57:02.396Z,2.20
2018-07-21T12:59:30.905Z,1.57
2018-07-21T13:01:59.366Z,2.10
2018-07-21T13:04:27.861Z,2.12
2018-07-21T13:06:56.392Z,1.90
2018-07-21T13:09:24.874Z,1.90
2018-07-21T13:11:53.325Z,1.98
2018-07-21T13:14:21.836Z,1.70
2018-07-21T13:16:50.284Z,2.33
2018-07-21T13:19:18.761Z,1.90
2018-07-21T13:21:47.244Z,2.27
2018-07-21T13:24:15.852Z,2.65
2018-07-21T13:26:44.479Z,3.33
2018-07-21T13:29:12.959Z,4.92
2018-07-21T13:31:41.482Z,2.83
2018-07-21T13:34:09.933Z,3.30
2018-07-21T13:36:38.437Z,2.87
2018-07-21T13:39:09.266Z,2.22
2018-07-21T13:41:37.825Z,1.55
2018-07-21T13:44:06.353Z,1.90
2018-07-21T13:46:34.783Z,1.75
2018-07-21T13:49:03.216Z,1.90
2018-07-21T13:51:32.271Z,1.72
2018-07-21T13:54:01.056Z,2.12
2018-07-21T13:56:30.364Z,2.15
2018-07-21T13:58:58.846Z,1.95
2018-07-21T14:01:27.311Z,2.45
2018-07-21T14:03:55.863Z,2.20
2018-07-21T14:06:24.573Z,1.57
2018-07-21T14:08:53.012Z,2.27
2018-07-21T14:11:21.496Z,1.87
2018-07-21T14:13:49.912Z,2.70
2018-07-21T14:16:18.560Z,2.37
2018-07-21T14:18:46.719Z,2.83
2018-07-21T14:21:14.899Z,2.72
2018-07-21T14:23:43.036Z,3.52
2018-07-21T14:26:11.488Z,2.10
2018-07-21T14:28:39.904Z,2.37
2018-07-21T14:31:08.420Z,3.62
2018-07-21T14:33:36.862Z,2.33
2018-07-21T14:36:05.740Z,2.70
2018-07-21T14:38:34.516Z,2.02
2018-07-21T14:41:03.009Z,3.15
2018-07-21T14:43:31.477Z,2.40
2018-07-21T14:45:59.983Z,2.37
2018-07-21T14:48:28.410Z,3.17
2018-07-21T14:50:56.885Z,2.37
2018-07-21T14:53:25.325Z,2.65
2018-07-21T14:55:53.796Z,1.98
2018-07-21T14:58:22.252Z,2.00
2018-07-21T15:00:50.787Z,2.17
2018-07-21T15:03:18.881Z,2.50
2018-07-21T15:05:47.310Z,2.60
2018-07-21T15:08:15.733Z,1.98
2018-07-21T15:10:44.220Z,2.40
2018-07-21T15:13:12.689Z,1.90
2018-07-21T15:15:41.169Z,1.85
2018-07-21T15:18:09.642Z,1.80
2018-07-21T15:20:38.185Z,2.33
2018-07-21T15:23:06.803Z,2.40
2018-07-21T15:25:35.289Z,2.02
2018-07-21T15:28:03.732Z,3.25
2018-07-21T15:30:32.249Z,2.42
2018-07-21T15:33:00.672Z,2.35
2018-07-21T15:35:29.113Z,5.58
2018-07-21T15:37:57.772Z,2.65
2018-07-21T15:40:26.237Z,3.17
2018-07-21T15:42:54.768Z,2.80
2018-07-21T15:45:23.352Z,2.35
2018-07-21T15:47:51.830Z,2.75
2018-07-21T15:50:20.306Z,3.15
2018-07-21T15:52:48.768Z,2.10
2018-07-21T15:55:17.204Z,2.52
2018-07-21T15:57:45.681Z,2.20
2018-07-21T16:00:14.123Z,2.08
2018-07-21T16:02:42.746Z,3.05
2018-07-21T16:05:11.204Z,2.65
2018-07-21T16:07:39.677Z,2.95
2018-07-21T16:10:08.105Z,2.50
2018-07-21T16:12:36.570Z,4.20
2018-07-21T16:15:05.672Z,3.47
2018-07-21T16:17:34.146Z,2.98
2018-07-21T16:20:02.833Z,3.27
2018-07-21T16:22:31.377Z,2.10
2018-07-21T16:24:59.804Z,2.83
2018-07-21T16:27:28.292Z,3.87
2018-07-21T16:29:56.760Z,3.95
2018-07-21T16:32:25.211Z,2.80
2018-07-21T16:34:53.656Z,2.35
2018-07-21T16:37:22.140Z,2.95
2018-07-21T16:39:50.592Z,2.62
2018-07-21T16:42:19.057Z,2.85
2018-07-21T16:44:47.488Z,4.12
2018-07-21T16:47:15.913Z,2.50
2018-07-21T16:49:44.318Z,2.37
2018-07-21T16:52:12.770Z,3.27
2018-07-21T16:54:41.256Z,3.25
2018-07-21T16:57:09.756Z,2.85
2018-07-21T16:59:38.141Z,3.40
2018-07-21T17:02:06.713Z,3.30
2018-07-21T17:04:35.136Z,4.65
2018-07-21T17:07:03.688Z,2.98
2018-07-21T17:09:32.137Z,3.35
2018-07-21T17:12:00.618Z,2.83
2018-07-21T17:14:29.078Z,2.95
2018-07-21T17:16:57.529Z,3.95
2018-07-21T17:19:25.946Z,3.08
2018-07-21T17:21:54.417Z,2.67
2018-07-21T17:24:22.857Z,3.17
2018-07-21T17:26:51.300Z,3.72
2018-07-21T17:29:19.773Z,3.05
2018-07-21T17:31:48.213Z,3.05
2018-07-21T17:34:16.696Z,4.78
2018-07-21T17:36:45.120Z,5.22
2018-07-21T17:39:13.627Z,3.47
2018-07-21T17:41:42.144Z,3.45
2018-07-21T17:44:10.614Z,2.92
2018-07-21T17:46:39.032Z,8.23
2018-07-21T17:49:07.677Z,27.13
2018-07-21T17:51:36.757Z,22.48
2018-07-21T17:54:05.269Z,10.35
2018-07-21T17:56:33.688Z,3.60
2018-07-21T17:59:01.868Z,3.33
2018-07-21T18:01:30.306Z,4.25
2018-07-21T18:03:58.764Z,4.40
2018-07-21T18:06:27.248Z,3.17
2018-07-21T18:08:55.723Z,3.83
2018-07-21T18:11:25.126Z,3.67
2018-07-21T18:13:53.580Z,3.52
2018-07-21T18:16:22.078Z,4.10
2018-07-21T18:18:50.548Z,6.00
2018-07-21T18:21:18.978Z,1.70
2018-07-21T18:23:47.453Z,4.22
2018-07-21T18:26:15.885Z,3.12
2018-07-21T18:28:44.473Z,1.80
2018-07-21T18:31:12.920Z,2.90
2018-07-21T18:33:41.397Z,4.05
2018-07-21T18:36:09.820Z,1.90
2018-07-21T18:38:38.417Z,1.70
2018-07-21T18:41:07.733Z,5.53
2018-07-21T18:43:36.184Z,1.42
2018-07-21T18:46:04.827Z,1.87
2018-07-21T18:48:33.287Z,2.12
2018-07-21T18:51:01.718Z,1.57
2018-07-21T18:53:30.197Z,3.00
2018-07-21T18:55:58.681Z,1.92
2018-07-21T18:58:27.181Z,2.52
2018-07-21T19:00:55.661Z,2.62
2018-07-21T19:03:24.521Z,1.70
2018-07-21T19:05:53.006Z,1.90
2018-07-21T19:08:22.340Z,1.82
2018-07-21T19:10:52.072Z,3.35
2018-07-21T19:13:20.560Z,1.70
2018-07-21T19:15:54.263Z,2.60
2018-07-21T19:18:22.784Z,2.27
2018-07-21T19:20:56.518Z,5.30
2018-07-21T19:23:25.133Z,3.37
2018-07-21T19:25:58.761Z,3.08
2018-07-21T19:28:27.216Z,2.75
2018-07-21T19:30:55.700Z,1.70
2018-07-21T19:33:24.252Z,4.30
2018-07-21T19:35:52.792Z,2.22
2018-07-21T19:38:21.249Z,2.67
2018-07-21T19:40:49.716Z,4.05
2018-07-21T19:43:18.128Z,2.45
2018-07-21T19:45:46.641Z,2.95
2018-07-21T19:48:15.013Z,4.87
2018-07-21T19:50:43.540Z,3.42
2018-07-21T19:53:11.968Z,2.90
2018-07-21T19:55:40.432Z,2.75
2018-07-21T19:58:08.943Z,2.58
2018-07-21T20:00:37.583Z,2.65
2018-07-21T20:03:06.253Z,3.10
2018-07-21T20:05:34.685Z,3.30
2018-07-21T20:08:03.260Z,4.78
2018-07-21T20:10:31.734Z,8.55
2018-07-21T20:13:00.160Z,4.95
2018-07-21T20:15:28.625Z,4.85
2018-07-21T20:17:57.053Z,7.25
2018-07-21T20:20:25.566Z,6.12
2018-07-21T20:22:54.008Z,6.50
2018-07-21T20:25:22.467Z,4.62
2018-07-21T20:27:51.136Z,3.67
2018-07-21T20:30:19.584Z,4.58
2018-07-21T20:32:48.029Z,2.72
2018-07-21T20:35:16.537Z,2.15
2018-07-21T20:37:45.074Z,2.27
2018-07-21T20:40:13.534Z,5.35
2018-07-21T20:42:42.009Z,2.80
2018-07-21T20:45:10.490Z,3.42
2018-07-21T20:47:39.032Z,1.98
2018-07-21T20:50:07.513Z,2.20
2018-07-21T20:52:35.932Z,3.35
2018-07-21T20:55:04.527Z,2.30
2018-07-21T20:57:32.944Z,3.02
2018-07-21T21:00:01.481Z,2.27
2018-07-21T21:02:29.828Z,4.75
2018-07-21T21:04:58.412Z,5.87
2018-07-21T21:07:26.865Z,2.08
2018-07-21T21:09:55.339Z,1.82
2018-07-21T21:12:23.793Z,2.60
2018-07-21T21:14:52.241Z,2.60
2018-07-21T21:17:20.674Z,2.90
2018-07-21T21:19:49.125Z,3.85
2018-07-21T21:22:17.657Z,2.85
2018-07-21T21:24:46.064Z,3.62
2018-07-21T21:27:14.700Z,3.83
2018-07-21T21:29:43.444Z,3.08
2018-07-21T21:32:12.004Z,5.00
2018-07-21T21:34:40.418Z,3.05
2018-07-21T21:37:08.860Z,4.20
2018-07-21T21:39:37.281Z,2.87
2018-07-21T21:42:05.928Z,3.12
2018-07-21T21:44:34.380Z,2.92
2018-07-21T21:47:02.836Z,5.03
2018-07-21T21:49:31.289Z,4.97
2018-07-21T21:51:59.760Z,4.30
2018-07-21T21:54:28.229Z,3.90
2018-07-21T21:56:56.653Z,5.42
2018-07-21T21:59:25.400Z,4.37
2018-07-21T22:01:53.842Z,4.08
2018-07-21T22:04:22.288Z,5.85
2018-07-21T22:06:50.769Z,5.97
2018-07-21T22:09:19.213Z,4.55
2018-07-21T22:11:47.693Z,4.50
2018-07-21T22:14:16.251Z,4.92
2018-07-21T22:16:44.798Z,4.85
2018-07-21T22:19:13.233Z,4.28
2018-07-21T22:21:41.793Z,5.60
2018-07-21T22:24:10.229Z,4.97
2018-07-21T22:26:38.692Z,5.35
2018-07-21T22:29:07.116Z,7.28
2018-07-21T22:31:35.541Z,7.55
2018-07-21T22:34:04.056Z,6.30
2018-07-21T22:36:32.507Z,6.25
2018-07-21T22:39:01.157Z,4.87
2018-07-21T22:41:29.636Z,9.15
2018-07-21T22:43:58.084Z,5.45
2018-07-21T22:46:26.668Z,6.33
2018-07-21T22:48:55.107Z,6.03
2018-07-21T22:51:23.528Z,5.17
2018-07-21T22:53:51.996Z,7.17
2018-07-21T22:56:20.492Z,6.47
2018-07-21T22:58:48.977Z,6.42
2018-07-21T23:01:17.508Z,6.97
2018-07-21T23:03:46.016Z,5.70
2018-07-21T23:06:14.445Z,5.33
2018-07-21T23:08:42.892Z,5.80
2018-07-21T23:11:11.329Z,4.78
2018-07-21T23:13:39.772Z,5.78
2018-07-21T23:16:08.218Z,5.45
2018-07-21T23:18:36.680Z,6.28
2018-07-21T23:21:05.238Z,5.62
2018-07-21T23:23:33.692Z,8.60
2018-07-21T23:26:02.104Z,5.72
2018-07-21T23:28:30.555Z,6.22
2018-07-21T23:30:59.835Z,5.60
2018-07-21T23:33:28.330Z,6.22
2018-07-21T23:35:56.782Z,6.70
2018-07-21T23:38:25.408Z,6.92
2018-07-21T23:40:53.911Z,5.67
2018-07-21T23:43:22.367Z,6.08
2018-07-21T23:45:50.807Z,6.35
2018-07-21T23:48:19.253Z,4.58
2018-07-21T23:50:56.163Z,4.92
2018-07-21T23:53:24.769Z,7.00
2018-07-21T23:55:53.192Z,5.00
2018-07-21T23:58:21.640Z,5.45
